createdAt,value
2019-06-10T00:01:08.846Z,53.20
2019-06-10T00:03:38.445Z,53.20
2019-06-10T00:06:07.054Z,53.30
2019-06-10T00:08:35.822Z,53.40
2019-06-10T00:11:05.032Z,53.60
2019-06-10T00:13:34.515Z,53.50
2019-06-10T00:16:04.796Z,53.60
2019-06-10T00:18:41.540Z,53.60
2019-06-10T00:21:04.967Z,53.60
2019-06-10T00:23:33.344Z,53.60
2019-06-10T00:26:05.798Z,53.70
2019-06-10T00:28:31.730Z,53.70
2019-06-10T00:31:01.184Z,53.70
2019-06-10T00:33:31.023Z,53.80
2019-06-10T00:36:03.731Z,53.80
2019-06-10T00:38:31.852Z,53.80
2019-06-10T00:41:03.989Z,53.70
2019-06-10T00:43:30.587Z,53.70
2019-06-10T00:46:00.749Z,53.70
2019-06-10T00:48:32.350Z,53.70
2019-06-10T00:51:01.339Z,53.70
2019-06-10T00:53:31.628Z,53.80
2019-06-10T00:56:02.447Z,53.80
2019-06-10T00:58:32.008Z,53.80
2019-06-10T01:01:01.141Z,53.80
2019-06-10T01:03:31.329Z,53.80
2019-06-10T01:06:02.590Z,53.80
2019-06-10T01:08:31.576Z,53.80
2019-06-10T01:11:05.688Z,53.80
2019-06-10T01:13:30.945Z,53.80
2019-06-10T01:16:01.601Z,53.80
2019-06-10T01:18:35.606Z,53.80
2019-06-10T01:21:01.874Z,53.90
2019-06-10T01:23:31.056Z,53.90
2019-06-10T01:26:01.509Z,53.90
2019-06-10T01:28:31.422Z,54.60
2019-06-10T01:31:01.027Z,53.90
2019-06-10T01:33:31.880Z,53.90
2019-06-10T01:36:00.775Z,53.90
2019-06-10T01:38:31.539Z,53.90
2019-06-10T01:41:01.575Z,53.90
2019-06-10T01:43:31.821Z,53.80
2019-06-10T01:46:01.567Z,53.80
2019-06-10T01:48:43.654Z,53.80
2019-06-10T01:51:01.824Z,53.90
2019-06-10T01:53:31.474Z,53.90
2019-06-10T01:56:00.990Z,53.90
2019-06-10T01:58:31.600Z,54.50
2019-06-10T02:01:18.628Z,53.90
2019-06-10T02:03:47.095Z,54.00
2019-06-10T02:06:18.298Z,54.00
2019-06-10T02:08:45.699Z,53.90
2019-06-10T02:11:16.015Z,53.90
2019-06-10T02:13:44.007Z,53.90
2019-06-10T02:16:15.368Z,54.00
2019-06-10T02:18:54.407Z,53.90
2019-06-10T02:21:15.018Z,54.00
2019-06-10T02:23:42.334Z,54.00
2019-06-10T02:26:11.892Z,54.10
2019-06-10T02:28:40.709Z,54.10
2019-06-10T02:31:12.685Z,54.00
2019-06-10T02:33:41.765Z,54.00
2019-06-10T02:36:09.736Z,54.00
2019-06-10T02:38:39.556Z,54.00
2019-06-10T02:41:08.209Z,54.00
2019-06-10T02:43:38.183Z,54.60
2019-06-10T02:46:06.705Z,54.10
2019-06-10T02:48:35.657Z,54.00
2019-06-10T02:51:05.420Z,54.00
2019-06-10T02:53:35.881Z,54.10
2019-06-10T02:56:05.438Z,54.00
2019-06-10T02:58:39.196Z,54.00
2019-06-10T03:01:04.558Z,54.00
2019-06-10T03:03:42.893Z,54.00
2019-06-10T03:06:07.418Z,54.00
2019-06-10T03:08:36.311Z,54.00
2019-06-10T03:11:04.041Z,54.10
2019-06-10T03:13:33.127Z,54.10
2019-06-10T03:16:03.233Z,54.10
2019-06-10T03:18:32.909Z,54.00
2019-06-10T03:21:02.654Z,54.10
2019-06-10T03:23:32.058Z,54.30
2019-06-10T03:26:04.159Z,54.00
2019-06-10T03:28:32.950Z,54.00
2019-06-10T03:31:05.741Z,54.00
2019-06-10T03:33:40.411Z,54.10
2019-06-10T03:36:03.251Z,54.70
2019-06-10T03:38:32.508Z,54.10
2019-06-10T03:41:03.243Z,54.20
2019-06-10T03:43:32.871Z,54.10
2019-06-10T03:46:02.970Z,54.10
2019-06-10T03:48:32.911Z,54.10
2019-06-10T03:51:03.353Z,54.10
2019-06-10T03:53:33.734Z,54.10
2019-06-10T03:56:02.281Z,54.10
2019-06-10T03:58:32.743Z,54.10
2019-06-10T04:01:03.073Z,54.20
2019-06-10T04:03:33.546Z,54.20
2019-06-10T04:06:02.398Z,54.20
2019-06-10T04:08:32.980Z,54.30
2019-06-10T04:11:02.842Z,54.20
2019-06-10T04:13:33.486Z,54.20
2019-06-10T04:16:02.298Z,54.30
2019-06-10T04:18:32.872Z,54.20
2019-06-10T04:21:02.318Z,54.20
2019-06-10T04:23:33.368Z,54.40
2019-06-10T04:26:02.324Z,54.30
2019-06-10T04:28:33.491Z,54.40
2019-06-10T04:31:02.535Z,54.40
2019-06-10T04:33:32.909Z,54.50
2019-06-10T04:36:02.972Z,54.40
2019-06-10T04:38:32.777Z,54.40
2019-06-10T04:41:03.289Z,54.40
2019-06-10T04:43:32.578Z,54.50
2019-06-10T04:46:02.454Z,54.50
2019-06-10T04:48:32.618Z,54.50
2019-06-10T04:51:02.838Z,54.50
2019-06-10T04:53:32.893Z,54.60
2019-06-10T04:56:03.068Z,54.40
2019-06-10T04:58:33.421Z,54.50
2019-06-10T05:01:03.133Z,54.50
2019-06-10T05:03:32.865Z,54.50
2019-06-10T05:06:03.418Z,54.40
2019-06-10T05:08:33.644Z,54.40
2019-06-10T05:11:03.681Z,54.40
2019-06-10T05:13:33.507Z,54.40
2019-06-10T05:16:03.686Z,54.50
2019-06-10T05:18:33.300Z,54.60
2019-06-10T05:21:02.880Z,54.70
2019-06-10T05:23:32.848Z,54.70
2019-06-10T05:26:02.882Z,54.60
2019-06-10T05:28:34.247Z,54.50
2019-06-10T05:31:02.833Z,54.50
2019-06-10T05:33:33.432Z,54.40
2019-06-10T05:36:02.640Z,54.40
2019-06-10T05:38:34.876Z,54.40
2019-06-10T05:41:02.911Z,54.40
2019-06-10T05:43:34.324Z,54.40
2019-06-10T05:46:02.892Z,54.50
2019-06-10T05:48:33.677Z,54.50
2019-06-10T05:51:03.841Z,54.50
2019-06-10T05:53:33.581Z,54.50
2019-06-10T05:56:02.241Z,54.50
2019-06-10T05:58:34.071Z,54.50
2019-06-10T06:01:02.666Z,54.50
2019-06-10T06:03:35.268Z,54.50
2019-06-10T06:06:03.241Z,54.50
2019-06-10T06:08:33.355Z,54.50
2019-06-10T06:11:03.221Z,54.50
2019-06-10T06:13:34.138Z,54.40
2019-06-10T06:16:03.346Z,54.40
2019-06-10T06:18:34.685Z,54.50
2019-06-10T06:21:19.966Z,54.40
2019-06-10T06:23:33.852Z,54.30
2019-06-10T06:26:04.008Z,54.40
2019-06-10T06:28:34.602Z,54.30
2019-06-10T06:31:03.363Z,54.40
2019-06-10T06:33:34.765Z,54.40
2019-06-10T06:36:03.462Z,54.30
2019-06-10T06:38:34.058Z,54.20
2019-06-10T06:41:03.159Z,54.20
2019-06-10T06:43:36.439Z,54.20
2019-06-10T06:46:02.425Z,54.30
2019-06-10T06:48:35.672Z,54.10
2019-06-10T06:51:05.478Z,54.30
2019-06-10T06:53:42.107Z,54.20
2019-06-10T06:56:03.697Z,54.30
2019-06-10T06:58:33.436Z,54.30
2019-06-10T07:01:10.166Z,54.20
2019-06-10T07:03:34.505Z,54.30
2019-06-10T07:06:02.697Z,54.30
2019-06-10T07:08:33.255Z,54.20
2019-06-10T07:11:03.042Z,54.30
2019-06-10T07:13:37.827Z,54.20
2019-06-10T07:16:05.804Z,54.20
2019-06-10T07:18:39.316Z,54.20
2019-06-10T07:21:04.754Z,54.20
2019-06-10T07:23:36.103Z,54.20
2019-06-10T07:26:03.075Z,54.20
2019-06-10T07:28:33.939Z,54.30
2019-06-10T07:31:03.219Z,54.20
2019-06-10T07:33:34.757Z,54.30
2019-06-10T07:36:03.264Z,54.20
2019-06-10T07:38:33.902Z,54.30
2019-06-10T07:41:02.733Z,54.40
2019-06-10T07:43:32.882Z,54.40
2019-06-10T07:46:03.345Z,54.40
2019-06-10T07:48:34.501Z,54.50
2019-06-10T07:51:02.880Z,54.40
2019-06-10T07:53:33.169Z,54.40
2019-06-10T07:56:03.215Z,54.50
2019-06-10T07:58:33.254Z,54.50
2019-06-10T08:01:02.765Z,54.30
2019-06-10T08:03:33.346Z,54.60
2019-06-10T08:06:03.250Z,54.60
2019-06-10T08:08:32.883Z,54.70
2019-06-10T08:11:03.415Z,54.50
2019-06-10T08:13:32.445Z,54.80
2019-06-10T08:16:02.806Z,54.90
2019-06-10T08:18:38.115Z,55.10
2019-06-10T08:21:03.203Z,55.00
2019-06-10T08:23:32.847Z,55.00
2019-06-10T08:26:03.539Z,55.20
2019-06-10T08:28:33.182Z,55.10
2019-06-10T08:31:03.614Z,55.10
2019-06-10T08:33:33.174Z,55.30
2019-06-10T08:36:03.978Z,55.30
2019-06-10T08:38:32.935Z,55.30
2019-06-10T08:41:03.214Z,55.30
2019-06-10T08:43:33.126Z,55.30
2019-06-10T08:46:02.544Z,55.40
2019-06-10T08:48:32.907Z,55.10
2019-06-10T08:51:03.260Z,55.40
2019-06-10T08:53:33.058Z,55.20
2019-06-10T08:56:02.878Z,55.00
2019-06-10T08:58:33.140Z,55.10
2019-06-10T09:01:02.296Z,55.10
2019-06-10T09:03:32.427Z,55.10
2019-06-10T09:06:02.703Z,54.90
2019-06-10T09:08:32.625Z,55.10
2019-06-10T09:11:02.358Z,55.10
2019-06-10T09:13:33.715Z,55.00
2019-06-10T09:16:14.587Z,55.10
2019-06-10T09:18:33.863Z,55.10
2019-06-10T09:21:02.453Z,55.00
2019-06-10T09:23:33.195Z,55.20
2019-06-10T09:26:03.536Z,55.00
2019-06-10T09:28:32.866Z,54.90
2019-06-10T09:31:04.070Z,55.00
2019-06-10T09:33:33.146Z,55.00
2019-06-10T09:36:03.227Z,55.10
2019-06-10T09:38:33.347Z,55.30
2019-06-10T09:41:05.909Z,54.90
2019-06-10T09:43:33.309Z,55.10
2019-06-10T09:46:03.616Z,55.30
2019-06-10T09:48:33.565Z,55.10
2019-06-10T09:51:02.621Z,55.20
2019-06-10T09:53:41.399Z,55.20
2019-06-10T09:56:03.835Z,55.20
2019-06-10T09:58:32.935Z,55.40
2019-06-10T10:01:03.285Z,55.40
2019-06-10T10:03:32.913Z,55.40
2019-06-10T10:06:11.714Z,56.10
2019-06-10T10:08:33.662Z,55.50
2019-06-10T10:11:02.240Z,55.60
2019-06-10T10:13:34.980Z,55.60
2019-06-10T10:16:02.637Z,55.60
2019-06-10T10:18:33.494Z,55.60
2019-06-10T10:21:03.751Z,55.60
2019-06-10T10:23:49.051Z,55.60
2019-06-10T10:26:03.193Z,55.70
2019-06-10T10:28:33.432Z,55.70
2019-06-10T10:31:04.385Z,55.60
2019-06-10T10:33:33.305Z,55.70
2019-06-10T10:36:02.814Z,55.50
2019-06-10T10:38:34.515Z,55.60
2019-06-10T10:41:04.464Z,55.50
2019-06-10T10:43:34.182Z,55.60
2019-06-10T10:46:05.393Z,55.50
2019-06-10T10:48:33.545Z,55.50
2019-06-10T10:51:03.482Z,55.60
2019-06-10T10:53:32.970Z,55.60
2019-06-10T10:56:02.491Z,55.70
2019-06-10T10:58:32.530Z,55.70
2019-06-10T11:01:04.252Z,55.50
2019-06-10T11:03:33.708Z,55.60
2019-06-10T11:06:01.346Z,55.40
2019-06-10T11:08:32.402Z,55.40
2019-06-10T11:11:03.641Z,55.50
2019-06-10T11:13:32.680Z,55.70
2019-06-10T11:16:00.331Z,55.70
2019-06-10T11:18:28.919Z,55.80
2019-06-10T11:21:01.260Z,55.80
2019-06-10T11:23:27.521Z,55.80
2019-06-10T11:26:01.206Z,55.80
2019-06-10T11:28:31.950Z,55.80
2019-06-10T11:31:00.046Z,55.80
2019-06-10T11:33:28.403Z,55.80
2019-06-10T11:35:58.938Z,55.80
2019-06-10T11:38:26.779Z,55.80
2019-06-10T11:40:58.522Z,55.80
2019-06-10T11:43:27.059Z,55.80
2019-06-10T11:46:02.971Z,55.70
2019-06-10T11:48:27.987Z,55.70
2019-06-10T11:50:59.955Z,55.70
2019-06-10T11:53:28.693Z,56.40
2019-06-10T11:55:57.851Z,55.80
2019-06-10T11:58:26.640Z,55.80
2019-06-10T12:00:57.633Z,56.00
2019-06-10T12:03:25.340Z,56.70
2019-06-10T12:05:57.021Z,56.70
2019-06-10T12:08:23.939Z,56.40
2019-06-10T12:10:57.337Z,56.30
2019-06-10T12:13:22.705Z,55.90
2019-06-10T12:16:32.751Z,55.90
2019-06-10T12:18:22.931Z,56.50
2019-06-10T12:20:55.618Z,55.90
2019-06-10T12:23:22.202Z,56.70
2019-06-10T12:25:54.575Z,55.90
2019-06-10T12:28:21.044Z,55.80
2019-06-10T12:30:51.172Z,55.70
2019-06-10T12:33:24.233Z,55.70
2019-06-10T12:35:51.782Z,55.80
2019-06-10T12:38:22.650Z,55.60
2019-06-10T12:40:52.392Z,55.70
2019-06-10T12:43:22.927Z,55.90
2019-06-10T12:45:53.936Z,55.90
2019-06-10T12:48:22.202Z,55.80
2019-06-10T12:50:53.248Z,55.90
2019-06-10T12:53:22.829Z,55.70
2019-06-10T12:55:53.553Z,55.90
2019-06-10T12:58:22.557Z,56.10
2019-06-10T13:00:53.226Z,56.30
2019-06-10T13:03:23.772Z,56.10
2019-06-10T13:05:53.145Z,56.30
2019-06-10T13:08:23.978Z,56.30
2019-06-10T13:10:53.312Z,56.40
2019-06-10T13:13:22.743Z,56.40
2019-06-10T13:15:53.182Z,56.60
2019-06-10T13:18:23.804Z,56.50
2019-06-10T13:20:53.815Z,56.60
2019-06-10T13:23:28.544Z,56.60
2019-06-10T13:25:58.108Z,56.70
2019-06-10T13:28:22.386Z,56.60
2019-06-10T13:30:54.040Z,56.70
2019-06-10T13:33:22.979Z,56.40
2019-06-10T13:35:53.551Z,56.70
2019-06-10T13:38:22.856Z,56.80
2019-06-10T13:40:53.304Z,56.70
2019-06-10T13:43:23.240Z,56.60
2019-06-10T13:45:53.255Z,56.60
2019-06-10T13:48:25.705Z,56.40
2019-06-10T13:50:52.837Z,56.70
2019-06-10T13:53:21.398Z,56.60
2019-06-10T13:55:52.774Z,56.40
2019-06-10T13:58:22.869Z,56.50
2019-06-10T14:00:53.299Z,56.60
2019-06-10T14:03:22.907Z,56.70
2019-06-10T14:05:57.784Z,56.70
2019-06-10T14:08:23.340Z,56.80
2019-06-10T14:10:54.142Z,56.70
2019-06-10T14:13:23.541Z,57.00
2019-06-10T14:15:53.405Z,56.90
2019-06-10T14:18:23.309Z,56.90
2019-06-10T14:20:53.182Z,58.00
2019-06-10T14:23:22.348Z,57.90
2019-06-10T14:25:52.645Z,58.20
2019-06-10T14:28:38.097Z,58.10
2019-06-10T14:30:53.746Z,58.30
2019-06-10T14:33:23.364Z,58.40
2019-06-10T14:35:53.456Z,58.30
2019-06-10T14:38:22.420Z,58.30
2019-06-10T14:40:52.667Z,58.20
2019-06-10T14:43:23.340Z,58.10
2019-06-10T14:45:53.377Z,58.00
2019-06-10T14:48:23.503Z,58.30
2019-06-10T14:50:51.815Z,58.30
2019-06-10T14:53:23.068Z,58.50
2019-06-10T14:55:53.295Z,59.30
2019-06-10T14:58:23.153Z,59.70
2019-06-10T15:00:54.123Z,60.00
2019-06-10T15:03:21.474Z,60.00
2019-06-10T15:05:52.641Z,60.60
2019-06-10T15:08:19.913Z,59.90
2019-06-10T15:10:48.549Z,59.90
2019-06-10T15:13:16.847Z,59.60
2019-06-10T15:15:47.038Z,59.80
2019-06-10T15:18:18.019Z,59.90
2019-06-10T15:20:45.669Z,59.90
2019-06-10T15:23:17.008Z,59.70
2019-06-10T15:25:52.530Z,60.40
2019-06-10T15:28:15.958Z,60.40
2019-06-10T15:30:44.389Z,60.80
2019-06-10T15:33:14.889Z,60.50
2019-06-10T15:35:42.995Z,60.60
2019-06-10T15:38:14.794Z,60.60
2019-06-10T15:40:43.362Z,60.50
2019-06-10T15:43:11.863Z,60.00
2019-06-10T15:45:40.501Z,60.80
2019-06-10T15:48:10.215Z,60.50
2019-06-10T15:50:38.686Z,60.50
2019-06-10T15:53:07.274Z,60.60
2019-06-10T15:56:05.279Z,60.60
2019-06-10T15:58:05.645Z,60.60
2019-06-10T16:00:34.390Z,60.30
2019-06-10T16:03:02.772Z,60.10
2019-06-10T16:05:32.194Z,60.60
2019-06-10T16:08:02.132Z,60.50
2019-06-10T16:10:32.735Z,60.50
2019-06-10T16:13:03.258Z,60.00
2019-06-10T16:15:33.089Z,60.00
2019-06-10T16:18:02.792Z,60.50
2019-06-10T16:20:32.374Z,60.00
2019-06-10T16:23:02.898Z,60.50
2019-06-10T16:25:31.347Z,59.90
2019-06-10T16:27:59.661Z,59.90
2019-06-10T16:30:27.962Z,60.50
2019-06-10T16:32:56.267Z,60.60
2019-06-10T16:35:26.736Z,60.60
2019-06-10T16:37:56.820Z,60.70
2019-06-10T16:40:25.858Z,60.80
2019-06-10T16:42:55.227Z,60.70
2019-06-10T16:45:30.147Z,60.60
2019-06-10T16:47:53.611Z,60.60
2019-06-10T16:50:24.049Z,60.60
2019-06-10T16:52:53.635Z,60.60
2019-06-10T16:55:22.706Z,61.40
2019-06-10T16:57:59.354Z,61.60
2019-06-10T17:00:23.232Z,61.80
2019-06-10T17:02:52.936Z,61.80
2019-06-10T17:05:25.158Z,62.00
2019-06-10T17:07:52.630Z,62.60
2019-06-10T17:10:24.058Z,63.50
2019-06-10T17:13:07.104Z,63.90
2019-06-10T17:15:35.402Z,63.20
2019-06-10T17:18:03.725Z,63.30
2019-06-10T17:20:34.071Z,63.10
2019-06-10T17:23:21.792Z,62.70
2019-06-10T17:25:53.437Z,63.00
2019-06-10T17:28:25.610Z,62.60
2019-06-10T17:30:53.207Z,62.60
2019-06-10T17:33:22.886Z,62.50
2019-06-10T17:35:52.442Z,62.80
2019-06-10T17:38:22.488Z,62.30
2019-06-10T17:40:52.138Z,62.30
2019-06-10T17:43:21.057Z,62.40
2019-06-10T17:45:49.461Z,61.80
2019-06-10T17:48:18.106Z,62.50
2019-06-10T17:50:46.405Z,62.30
2019-06-10T17:53:14.721Z,62.50
2019-06-10T17:55:43.084Z,62.10
2019-06-10T17:58:13.076Z,62.30
2019-06-10T18:00:42.200Z,62.10
2019-06-10T18:03:13.200Z,62.10
2019-06-10T18:05:42.580Z,62.30
2019-06-10T18:08:13.103Z,62.30
2019-06-10T18:10:43.622Z,62.30
2019-06-10T18:13:16.259Z,62.50
2019-06-10T18:15:43.073Z,62.50
2019-06-10T18:18:12.999Z,62.50
2019-06-10T18:20:43.489Z,62.60
2019-06-10T18:23:13.439Z,62.30
2019-06-10T18:25:43.355Z,62.10
2019-06-10T18:28:12.102Z,62.50
2019-06-10T18:30:43.287Z,62.50
2019-06-10T18:33:10.938Z,62.70
2019-06-10T18:35:42.204Z,62.60
2019-06-10T18:38:09.760Z,62.70
2019-06-10T18:40:38.066Z,62.50
2019-06-10T18:43:06.707Z,62.50
2019-06-10T18:45:38.214Z,62.40
2019-06-10T18:48:12.554Z,62.30
2019-06-10T18:50:45.763Z,62.20
2019-06-10T18:53:14.098Z,63.20
2019-06-10T18:55:43.607Z,62.40
2019-06-10T18:58:12.438Z,62.30
2019-06-10T19:00:56.915Z,62.50
2019-06-10T19:03:16.919Z,62.50
2019-06-10T19:05:45.662Z,62.60
2019-06-10T19:08:14.253Z,62.60
2019-06-10T19:10:43.277Z,62.10
2019-06-10T19:13:13.016Z,62.30
2019-06-10T19:15:42.648Z,62.60
2019-06-10T19:18:15.556Z,62.30
2019-06-10T19:20:45.296Z,62.40
2019-06-10T19:23:16.484Z,62.40
2019-06-10T19:25:44.955Z,62.50
2019-06-10T19:28:13.562Z,62.50
2019-06-10T19:30:44.873Z,62.60
2019-06-10T19:33:13.346Z,62.50
2019-06-10T19:35:43.757Z,62.50
2019-06-10T19:38:12.587Z,62.20
2019-06-10T19:40:42.904Z,62.50
2019-06-10T19:43:12.379Z,62.40
2019-06-10T19:45:42.585Z,62.50
2019-06-10T19:48:13.428Z,62.30
2019-06-10T19:50:48.132Z,62.20
2019-06-10T19:53:13.091Z,62.40
2019-06-10T19:55:44.426Z,62.50
2019-06-10T19:58:13.397Z,61.90
2019-06-10T20:00:48.856Z,62.40
2019-06-10T20:03:12.401Z,62.40
2019-06-10T20:05:43.405Z,62.40
2019-06-10T20:08:13.968Z,62.30
2019-06-10T20:10:42.735Z,62.40
2019-06-10T20:13:11.323Z,62.40
2019-06-10T20:15:39.904Z,62.40
2019-06-10T20:18:08.211Z,62.40
2019-06-10T20:20:38.071Z,62.50
2019-06-10T20:23:08.741Z,62.40
2019-06-10T20:25:38.341Z,62.20
2019-06-10T20:28:07.224Z,62.30
2019-06-10T20:30:37.260Z,62.30
2019-06-10T20:33:06.057Z,62.30
2019-06-10T20:35:34.419Z,62.30
2019-06-10T20:38:05.155Z,62.40
2019-06-10T20:40:35.538Z,62.30
2019-06-10T20:43:03.650Z,62.30
2019-06-10T20:45:33.222Z,62.20
2019-06-10T20:48:02.910Z,61.90
2019-06-10T20:50:32.409Z,62.50
2019-06-10T20:53:13.818Z,62.50
2019-06-10T20:55:40.453Z,62.30
2019-06-10T20:58:04.247Z,62.20
2019-06-10T21:00:34.214Z,62.00
2019-06-10T21:03:03.257Z,62.40
2019-06-10T21:05:32.381Z,62.30
2019-06-10T21:08:02.854Z,62.20
2019-06-10T21:10:35.727Z,62.10
2019-06-10T21:13:05.269Z,62.30
2019-06-10T21:15:34.492Z,62.30
2019-06-10T21:18:02.803Z,62.40
2019-06-10T21:20:33.112Z,61.50
2019-06-10T21:23:03.124Z,62.20
2019-06-10T21:25:32.474Z,62.20
2019-06-10T21:28:03.245Z,61.80
2019-06-10T21:30:40.617Z,62.60
2019-06-10T21:33:03.625Z,62.50
2019-06-10T21:35:32.786Z,62.40
2019-06-10T21:38:01.455Z,62.80
2019-06-10T21:40:29.795Z,62.80
2019-06-10T21:42:58.335Z,62.80
2019-06-10T21:45:26.902Z,62.90
2019-06-10T21:47:55.232Z,62.80
2019-06-10T21:50:23.874Z,62.90
2019-06-10T21:52:53.521Z,62.80
2019-06-10T21:55:22.575Z,63.00
2019-06-10T21:57:53.174Z,62.70
2019-06-10T22:00:31.798Z,62.90
2019-06-10T22:03:02.152Z,63.70
2019-06-10T22:05:33.039Z,63.00
2019-06-10T22:08:02.980Z,62.80
2019-06-10T22:10:33.402Z,62.30
2019-06-10T22:13:07.226Z,62.70
2019-06-10T22:15:35.744Z,62.00
2019-06-10T22:18:04.506Z,62.80
2019-06-10T22:20:33.079Z,62.70
2019-06-10T22:23:02.630Z,62.90
2019-06-10T22:25:32.795Z,62.30
2019-06-10T22:28:02.700Z,62.60
2019-06-10T22:30:32.117Z,62.80
2019-06-10T22:33:03.050Z,62.70
2019-06-10T22:35:31.032Z,63.50
2019-06-10T22:37:59.611Z,63.40
2019-06-10T22:40:28.211Z,62.90
2019-06-10T22:42:56.749Z,62.90
2019-06-10T22:45:25.147Z,62.40
2019-06-10T22:47:55.275Z,62.50
2019-06-10T22:50:24.377Z,62.70
2019-06-10T22:52:55.523Z,62.40
2019-06-10T22:55:22.986Z,62.50
2019-06-10T22:57:54.713Z,62.40
2019-06-10T23:00:22.308Z,62.80
2019-06-10T23:02:54.308Z,63.00
2019-06-10T23:05:23.253Z,62.80
2019-06-10T23:07:53.292Z,62.90
2019-06-10T23:10:22.918Z,63.00
2019-06-10T23:12:54.927Z,62.40
2019-06-10T23:15:23.510Z,62.90
2019-06-10T23:17:55.271Z,63.10
2019-06-10T23:20:22.342Z,62.80
2019-06-10T23:22:54.425Z,63.00
2019-06-10T23:25:22.069Z,62.60
2019-06-10T23:27:54.749Z,62.50
2019-06-10T23:30:22.368Z,63.00
2019-06-10T23:32:54.422Z,62.80
2019-06-10T23:35:23.111Z,62.50
2019-06-10T23:37:55.059Z,63.60
2019-06-10T23:40:23.478Z,65.40
2019-06-10T23:42:53.130Z,65.40
2019-06-10T23:45:22.421Z,64.80
2019-06-10T23:47:53.055Z,64.40
2019-06-10T23:50:22.502Z,64.00
2019-06-10T23:52:54.166Z,64.40
2019-06-10T23:55:22.777Z,64.50
2019-06-10T23:57:53.058Z,64.30
